Time;durP1;ratioP1;P1;durP2;ratioP2;P2;SDS_P1;SDS_P2;PMS_P1;PMS_P2;Temp;Humidity;BMP_temperature;BMP_pressure;BME280_temperature;BME280_humidity;BME280_pressure;Samples;Min_cycle;Max_cycle;Signal;HPM_P1;HPM_P2
2023/04/27 00:00:12;;;;;;;;;24.33;22.00;;;;;9.07;54.42;101667.31;5119267;27;45423;-67
2023/04/27 00:02:37;;;;;;;;;28.00;23.00;;;;;9.00;55.04;101651.59;5118346;27;45808;-67
2023/04/27 00:05:04;;;;;;;;;24.00;22.33;;;;;8.93;55.02;101649.84;5118673;27;45154;-67
2023/04/27 00:07:30;;;;;;;;;22.00;20.00;;;;;8.92;54.91;101641.09;5118883;27;45400;-67
2023/04/27 00:09:55;;;;;;;;;24.00;19.67;;;;;8.96;55.14;101660.34;5118973;27;45318;-67
2023/04/27 00:12:21;;;;;;;;;30.67;22.67;;;;;8.83;55.47;101639.34;5118589;27;46569;-67
2023/04/27 00:14:46;;;;;;;;;18.67;18.67;;;;;8.86;54.94;101656.88;5118505;27;45421;-67
2023/04/27 00:17:12;;;;;;;;;28.00;22.33;;;;;8.82;55.48;101657.75;5118691;27;45303;-67
2023/04/27 00:19:38;;;;;;;;;22.33;18.67;;;;;8.83;55.58;101665.63;5119106;27;45526;-67
2023/04/27 00:22:03;;;;;;;;;35.33;24.00;;;;;8.84;55.39;101661.22;5118451;27;47251;-67
2023/04/27 00:24:29;;;;;;;;;30.33;24.67;;;;;8.80;55.82;101656.84;5118483;27;45289;-67
2023/04/27 00:26:54;;;;;;;;;23.67;20.33;;;;;8.65;55.85;101637.59;5118730;27;45335;-67
2023/04/27 00:29:20;;;;;;;;;24.33;19.33;;;;;8.67;54.98;101638.50;5118751;27;45422;-67
2023/04/27 00:31:45;;;;;;;;;22.00;20.00;;;;;8.65;55.66;101642.84;5118270;27;46965;-67
2023/04/27 00:34:10;;;;;;;;;21.00;20.67;;;;;8.70;55.98;101654.25;5118475;27;45404;-67
2023/04/27 00:36:36;;;;;;;;;23.67;21.00;;;;;8.35;55.97;101592.09;5118743;27;45319;-67
2023/04/27 00:39:02;;;;;;;;;26.67;20.33;;;;;8.61;55.97;101643.75;5118528;27;45305;-67
2023/04/27 00:41:28;;;;;;;;;27.33;22.33;;;;;8.66;56.09;101644.63;5118183;27;45553;-67
2023/04/27 00:43:53;;;;;;;;;28.00;22.67;;;;;8.62;55.84;101640.22;5118202;27;45376;-67
2023/04/27 00:46:18;;;;;;;;;23.00;18.67;;;;;8.43;55.43;101605.22;5118263;27;45213;-67
2023/04/27 00:48:45;;;;;;;;;23.33;20.33;;;;;8.69;55.86;101641.13;5118663;27;45343;-67
2023/04/27 00:51:10;;;;;;;;;23.00;17.33;;;;;8.59;55.94;101629.72;5117928;27;46976;-67
2023/04/27 00:53:36;;;;;;;;;36.00;23.33;;;;;8.61;56.19;101640.22;5118142;27;45254;-67
2023/04/27 00:56:03;;;;;;;;;23.00;20.00;;;;;8.60;56.28;101646.38;5118543;27;45340;-67
2023/04/27 00:58:29;;;;;;;;;25.00;21.00;;;;;8.44;56.34;101621.84;5118318;27;45299;-67
2023/04/27 01:00:55;;;;;;;;;26.00;23.00;;;;;8.52;56.12;101641.09;5116990;27;46560;-67
2023/04/27 01:03:21;;;;;;;;;20.00;18.00;;;;;8.53;55.84;101637.63;5117998;27;45388;-67
2023/04/27 01:05:46;;;;;;;;;29.67;22.33;;;;;8.22;56.17;101592.06;5118013;27;45364;-67
2023/04/27 01:08:12;;;;;;;;;25.67;23.00;;;;;8.45;56.19;101644.59;5118204;27;45433;-67
2023/04/27 01:10:37;;;;;;;;;31.00;24.67;;;;;8.43;56.70;101644.56;5117809;27;47425;-67
2023/04/27 01:13:02;;;;;;;;;31.67;24.33;;;;;8.36;56.98;101634.94;5117731;27;45438;-66
2023/04/27 01:15:28;;;;;;;;;20.00;18.33;;;;;8.34;56.28;101627.06;5120540;27;45348;-67
2023/04/27 01:18:00;;;;;;;;;23.00;21.33;;;;;8.33;56.51;101633.19;5121710;27;45472;-67
2023/04/27 01:20:29;;;;;;;;;31.67;24.33;;;;;8.40;56.55;101639.31;5120993;27;45436;-67
2023/04/27 01:22:55;;;;;;;;;29.33;23.67;;;;;8.34;56.53;101637.56;5121110;27;45282;-67
2023/04/27 01:25:20;;;;;;;;;32.00;22.67;;;;;8.11;57.06;101602.56;5121126;27;45345;-67
2023/04/27 01:27:45;;;;;;;;;25.67;22.33;;;;;8.25;56.38;101627.06;5121734;27;45452;-67
2023/04/27 01:30:11;;;;;;;;;28.00;21.67;;;;;8.28;56.69;101631.47;5121083;27;45265;-67
2023/04/27 01:32:37;;;;;;;;;23.33;18.67;;;;;8.25;57.06;101623.56;5121149;27;45457;-67
2023/04/27 01:35:03;;;;;;;;;27.33;22.67;;;;;8.25;57.06;101634.06;5121359;27;45435;-67
2023/04/27 01:37:29;;;;;;;;;25.33;21.33;;;;;8.25;56.80;101632.31;5121423;27;45335;-67
2023/04/27 01:39:55;;;;;;;;;25.00;22.00;;;;;8.10;56.44;101603.44;5120543;27;45485;-67
2023/04/27 01:42:20;;;;;;;;;30.00;25.67;;;;;8.18;57.11;101628.81;5120887;27;45429;-67
2023/04/27 01:44:45;;;;;;;;;28.00;24.67;;;;;8.15;57.08;101613.06;5121138;27;45499;-67
2023/04/27 01:47:11;;;;;;;;;23.00;22.00;;;;;8.10;56.43;101619.19;5121151;27;45545;-67
2023/04/27 01:49:36;;;;;;;;;22.00;20.00;;;;;8.11;56.28;101611.31;5121063;27;45421;-66
2023/04/27 01:52:01;;;;;;;;;22.00;20.67;;;;;8.06;56.89;101599.06;5120737;27;45261;-67
2023/04/27 01:54:27;;;;;;;;;26.00;24.00;;;;;8.15;56.76;101626.19;5121084;27;45272;-67
2023/04/27 01:56:52;;;;;;;;;25.67;20.67;;;;;8.08;57.15;101607.81;5121296;27;45229;-67
2023/04/27 01:59:17;;;;;;;;;20.00;18.67;;;;;8.02;57.20;101606.94;5120878;27;46345;-67
2023/04/27 02:01:43;;;;;;;;;29.33;22.67;;;;;8.05;57.17;101618.31;5120669;27;45212;-67
2023/04/27 02:04:08;;;;;;;;;25.33;20.00;;;;;8.00;57.23;101613.94;5120991;27;45693;-67
2023/04/27 02:06:34;;;;;;;;;26.00;15.67;;;;;7.99;57.33;101611.31;5121032;27;45473;-67
2023/04/27 02:08:59;;;;;;;;;24.00;20.33;;;;;7.99;57.04;101614.78;5120635;27;47106;-67
2023/04/27 02:11:25;;;;;;;;;24.33;20.00;;;;;7.84;57.02;101592.03;5120604;27;45317;-67
2023/04/27 02:13:50;;;;;;;;;24.33;20.33;;;;;7.88;57.34;101610.41;5120624;27;45338;-66
2023/04/27 02:16:16;;;;;;;;;27.33;20.33;;;;;7.88;57.16;101613.88;5120653;27;45371;-67
2023/04/27 02:18:41;;;;;;;;;30.00;21.00;;;;;7.90;57.29;101609.53;5120130;27;46246;-69
2023/04/27 02:21:08;;;;;;;;;27.67;22.00;;;;;7.86;57.10;101599.91;5119992;27;45350;-70
2023/04/27 02:23:34;;;;;;;;;28.33;23.67;;;;;7.94;56.73;101621.75;5120640;27;45358;-70
2023/04/27 02:25:59;;;;;;;;;22.00;17.33;;;;;7.98;56.71;101625.28;5120187;27;45316;-70
2023/04/27 02:28:25;;;;;;;;;21.00;20.00;;;;;7.95;56.42;101625.28;5120355;27;45438;-71
2023/04/27 02:30:50;;;;;;;;;26.67;23.33;;;;;7.90;56.88;101624.38;5120171;27;45526;-71
2023/04/27 02:33:16;;;;;;;;;27.00;23.67;;;;;7.91;57.32;101628.75;5120580;27;45386;-71
2023/04/27 02:35:41;;;;;;;;;23.67;20.33;;;;;7.85;57.33;101612.13;5120646;27;45336;-71
2023/04/27 02:38:06;;;;;;;;;22.33;19.67;;;;;7.83;56.73;101619.13;5120066;27;46293;-70
2023/04/27 02:40:32;;;;;;;;;25.00;20.33;;;;;7.76;56.98;101613.88;5120167;27;45414;-71
2023/04/27 02:42:57;;;;;;;;;23.33;17.00;;;;;7.79;57.10;101617.34;5119973;27;45411;-70
2023/04/27 02:45:23;;;;;;;;;30.67;24.67;;;;;7.83;57.20;101621.75;5120669;27;45402;-71
2023/04/27 02:47:49;;;;;;;;;26.00;25.00;;;;;7.79;57.29;101622.59;5119709;27;45341;-71
2023/04/27 02:50:15;;;;;;;;;32.00;23.33;;;;;7.75;56.77;101612.09;5119869;27;45286;-71
2023/04/27 02:52:40;;;;;;;;;25.00;21.33;;;;;7.72;56.85;101601.63;5120282;27;45410;-70
2023/04/27 02:55:06;;;;;;;;;23.33;21.67;;;;;7.78;57.30;101612.13;5120227;27;45371;-71
2023/04/27 02:57:31;;;;;;;;;26.33;19.67;;;;;7.71;57.44;101602.47;5119970;27;46402;-72
2023/04/27 02:59:56;;;;;;;;;25.33;21.33;;;;;7.76;57.27;101613.88;5119891;27;45142;-71
2023/04/27 03:02:22;;;;;;;;;23.67;20.00;;;;;7.75;57.01;101610.34;5119817;27;45494;-71
2023/04/27 03:04:52;;;;;;;;;29.67;23.33;;;;;7.45;57.15;101563.94;5120194;27;45423;-71
2023/04/27 03:07:18;;;;;;;;;25.33;23.33;;;;;7.71;57.17;101599.84;5119604;27;47041;-71
2023/04/27 03:09:43;;;;;;;;;26.33;21.00;;;;;7.63;57.69;101587.59;5119745;27;45276;-71
2023/04/27 03:12:08;;;;;;;;;28.00;23.00;;;;;7.70;57.41;101592.84;5119581;27;45289;-71
2023/04/27 03:14:34;;;;;;;;;31.67;25.33;;;;;7.65;57.53;101588.50;5119778;27;45533;-71
2023/04/27 03:16:59;;;;;;;;;28.00;23.33;;;;;7.66;57.35;101595.47;5119322;27;47190;-71
2023/04/27 03:19:25;;;;;;;;;25.67;23.33;;;;;7.60;57.22;101594.59;5119561;27;45755;-71
2023/04/27 03:21:50;;;;;;;;;24.00;20.67;;;;;7.59;57.90;101590.22;5119641;27;45344;-71
2023/04/27 03:24:16;;;;;;;;;28.00;21.00;;;;;7.59;57.62;101598.09;5119860;27;45515;-71
2023/04/27 03:26:41;;;;;;;;;25.33;24.00;;;;;7.52;57.77;101588.44;5119108;27;47076;-72
2023/04/27 03:29:06;;;;;;;;;25.67;22.67;;;;;7.59;57.49;101587.59;5119545;27;45335;-71
2023/04/27 03:31:32;;;;;;;;;25.00;23.33;;;;;7.52;57.41;101580.59;5119283;27;45232;-71
2023/04/27 03:33:57;;;;;;;;;27.33;20.67;;;;;7.50;57.99;101585.81;5119683;27;45442;-71
2023/04/27 03:36:22;;;;;;;;;59.67;44.00;;;;;7.51;57.26;101592.81;5118688;27;45435;-72
2023/04/27 03:38:48;;;;;;;;;25.00;23.33;;;;;7.50;57.71;101589.31;5118904;27;45539;-72
2023/04/27 03:41:13;;;;;;;;;32.00;21.00;;;;;7.51;57.38;101603.31;5119495;27;45491;-72
2023/04/27 03:43:38;;;;;;;;;24.67;23.00;;;;;7.45;57.51;101600.63;5119236;27;45581;-71
2023/04/27 03:46:04;;;;;;;;;27.00;21.67;;;;;7.50;57.97;101612.88;5119270;27;45497;-72
2023/04/27 03:48:29;;;;;;;;;29.33;25.33;;;;;7.46;57.48;101600.66;5119040;27;45445;-71
2023/04/27 03:50:55;;;;;;;;;31.33;23.00;;;;;7.40;57.91;101591.91;5118541;27;45430;-70
2023/04/27 03:53:20;;;;;;;;;26.33;22.33;;;;;7.39;58.18;101587.53;5119264;27;45449;-70
2023/04/27 03:55:46;;;;;;;;;26.67;23.67;;;;;7.39;58.34;101592.75;5118929;27;45435;-70
2023/04/27 03:58:12;;;;;;;;;29.33;23.67;;;;;7.31;58.01;101588.34;5119125;27;45317;-70
2023/04/27 04:00:38;;;;;;;;;31.67;23.67;;;;;7.39;58.36;101605.84;5119273;27;45462;-70
2023/04/27 04:03:05;;;;;;;;;30.00;25.67;;;;;7.20;58.35;101566.47;5119049;27;45335;-70
2023/04/27 04:05:31;;;;;;;;;27.00;21.33;;;;;7.36;58.74;101596.22;5118597;27;46421;-70
2023/04/27 04:07:57;;;;;;;;;40.00;34.33;;;;;7.30;58.38;101583.13;5118727;27;45319;-70
2023/04/27 04:10:22;;;;;;;;;22.33;20.33;;;;;7.31;58.15;101593.59;5118921;27;45285;-70
2023/04/27 04:12:48;;;;;;;;;30.00;24.00;;;;;7.28;58.02;101579.63;5117489;27;45558;-70
2023/04/27 04:15:13;;;;;;;;;28.33;24.67;;;;;7.24;58.62;101578.72;5118683;27;46078;-70
2023/04/27 04:17:38;;;;;;;;;30.00;26.67;;;;;7.23;58.70;101578.72;5118476;27;45554;-70
2023/04/27 04:20:10;;;;;;;;;32.00;27.33;;;;;7.28;58.38;101587.50;5118898;27;45629;-70
2023/04/27 04:22:37;;;;;;;;;38.00;26.33;;;;;7.32;58.86;101607.59;5118976;27;45280;-70
2023/04/27 04:25:03;;;;;;;;;26.33;21.67;;;;;7.28;58.59;101604.06;5118432;27;46110;-70
2023/04/27 04:27:28;;;;;;;;;32.67;30.33;;;;;7.23;58.55;101603.19;5118336;27;45351;-70
2023/04/27 04:29:54;;;;;;;;;27.67;24.33;;;;;7.23;58.82;101613.66;5118687;27;45335;-70
2023/04/27 04:32:21;;;;;;;;;27.00;21.00;;;;;7.20;58.83;101613.63;5118564;27;45348;-70
2023/04/27 04:34:50;;;;;;;;;31.00;24.67;;;;;7.26;58.77;101625.88;5118457;27;45788;-71
2023/04/27 04:37:17;;;;;;;;;24.33;23.00;;;;;7.23;59.27;101628.50;5118337;27;45360;-71
2023/04/27 04:39:45;;;;;;;;;23.00;20.33;;;;;7.18;59.26;101625.84;5118347;27;45227;-70
2023/04/27 04:42:11;;;;;;;;;29.67;25.00;;;;;7.19;59.45;101638.09;5118690;27;45288;-70
2023/04/27 04:44:37;;;;;;;;;25.67;25.67;;;;;7.21;59.18;101638.97;5133546;27;46307;-70
2023/04/27 04:47:03;;;;;;;;;37.00;28.67;;;;;7.24;59.39;101645.97;5138855;27;45436;-70
2023/04/27 04:49:28;;;;;;;;;31.67;26.67;;;;;7.15;59.43;101636.31;5142028;27;45274;-68
2023/04/27 04:51:54;;;;;;;;;27.67;23.67;;;;;7.13;58.87;101624.94;5142830;27;45463;-69
2023/04/27 04:54:19;;;;;;;;;31.67;25.33;;;;;7.24;59.50;101636.34;5142729;27;45489;-69
2023/04/27 04:56:45;;;;;;;;;35.00;26.33;;;;;7.18;59.36;101628.47;5142584;27;45433;-69
2023/04/27 04:59:10;;;;;;;;;30.33;28.00;;;;;7.37;59.11;101634.69;5142835;27;45228;-69
2023/04/27 05:01:35;;;;;;;;;32.00;27.00;;;;;7.38;59.67;101639.06;5124414;27;45419;-69
2023/04/27 05:04:01;;;;;;;;;12.67;7.67;;;;;7.13;58.81;101594.41;5142330;27;46035;-69
2023/04/27 05:06:26;;;;;;;;;34.33;32.00;;;;;7.37;58.94;101644.28;5142564;27;45478;-70
2023/04/27 05:08:52;;;;;;;;;25.33;23.67;;;;;7.27;59.76;101636.38;5142633;27;45439;-70
2023/04/27 05:11:17;;;;;;;;;29.67;26.33;;;;;7.32;59.38;101642.50;5142263;27;45509;-69
2023/04/27 05:13:42;;;;;;;;;32.33;26.00;;;;;7.42;59.14;101645.16;5142309;27;45342;-70
2023/04/27 05:16:08;;;;;;;;;39.00;28.67;;;;;7.41;59.26;101638.19;5142290;27;45243;-69
2023/04/27 05:18:35;;;;;;;;;28.33;26.00;;;;;7.56;59.08;101637.38;5137694;27;45458;-69
2023/04/27 05:21:00;;;;;;;;;28.33;26.67;;;;;7.69;58.49;101640.94;5135760;27;45417;-69
2023/04/27 05:23:25;;;;;;;;;32.33;28.67;;;;;7.85;58.21;101645.34;5121141;27;46281;-69
2023/04/27 05:25:51;;;;;;;;;31.33;24.67;;;;;7.90;57.64;101640.09;5121422;27;45298;-69
2023/04/27 05:28:16;;;;;;;;;25.33;21.33;;;;;7.89;57.54;101641.00;5121623;27;45826;-69
2023/04/27 05:30:42;;;;;;;;;27.33;25.67;;;;;7.84;57.76;101628.75;5121593;27;45388;-69
2023/04/27 05:33:07;;;;;;;;;25.00;23.00;;;;;7.90;57.95;101634.88;5120716;27;45599;-69
2023/04/27 05:35:33;;;;;;;;;31.67;25.00;;;;;7.90;57.32;101641.00;5121150;27;45261;-69
2023/04/27 05:37:59;;;;;;;;;27.67;24.00;;;;;7.93;57.44;101633.16;5121463;27;45303;-69
2023/04/27 05:40:24;;;;;;;;;32.67;23.67;;;;;7.74;57.21;101603.38;5121358;27;45366;-69
2023/04/27 05:42:50;;;;;;;;;29.00;22.33;;;;;7.98;57.38;101639.25;5121042;27;45375;-68
2023/04/27 05:45:15;;;;;;;;;29.50;24.00;;;;;7.98;57.18;101636.63;5121121;27;45334;-69
2023/04/27 05:47:41;;;;;;;;;26.00;24.67;;;;;8.04;56.85;101634.91;5120993;27;45473;-68
2023/04/27 05:50:07;;;;;;;;;23.67;23.67;;;;;8.56;56.32;101631.50;5121336;27;45553;-69
2023/04/27 05:52:32;;;;;;;;;28.67;24.67;;;;;8.63;56.02;101638.50;5136656;27;46585;-69
2023/04/27 05:54:58;;;;;;;;;33.33;25.00;;;;;8.33;55.90;101585.94;5121059;27;45430;-69
2023/04/27 05:57:24;;;;;;;;;29.33;26.33;;;;;8.58;55.65;101635.00;5121049;27;45457;-69
2023/04/27 05:59:51;;;;;;;;;29.00;23.67;;;;;8.47;55.78;101630.63;5120377;27;45388;-69
2023/04/27 06:02:16;;;;;;;;;28.67;25.33;;;;;8.43;56.01;101617.47;5120656;27;45356;-69
2023/04/27 06:04:42;;;;;;;;;31.67;25.67;;;;;8.48;56.15;101628.84;5120456;27;45760;-69
2023/04/27 06:07:08;;;;;;;;;42.00;32.00;;;;;8.57;55.84;101636.75;5121066;27;45279;-69
2023/04/27 06:09:33;;;;;;;;;35.33;26.00;;;;;8.60;55.46;101635.88;5121044;27;45464;-70
2023/04/27 06:11:59;;;;;;;;;28.67;27.67;;;;;8.62;55.72;101634.97;5120506;27;45157;-69
2023/04/27 06:14:24;;;;;;;;;26.33;24.67;;;;;8.67;55.46;101625.38;5120573;27;45442;-69
2023/04/27 06:16:50;;;;;;;;;26.00;22.67;;;;;8.71;55.03;101629.75;5120653;27;45257;-69
2023/04/27 06:19:15;;;;;;;;;23.33;20.00;;;;;8.70;54.71;101622.75;5120814;27;45422;-69
2023/04/27 06:21:41;;;;;;;;;32.67;26.33;;;;;8.76;54.83;101618.34;5120485;27;47150;-69
2023/04/27 06:24:06;;;;;;;;;35.67;29.00;;;;;8.78;54.77;101609.59;5120577;27;45418;-69
2023/04/27 06:26:32;;;;;;;;;35.33;28.67;;;;;9.31;53.68;101626.13;5120667;27;45537;-69
2023/04/27 06:28:58;;;;;;;;;33.67;28.67;;;;;10.43;51.44;101615.88;5120665;27;45452;-69
2023/04/27 06:31:24;;;;;;;;;30.67;27.00;;;;;10.95;50.33;101628.56;5120272;27;46966;-70
2023/04/27 06:33:49;;;;;;;;;32.00;27.67;;;;;11.02;49.63;101616.19;5120289;27;45319;-69
2023/04/27 06:36:15;;;;;;;;;36.33;31.33;;;;;10.92;49.67;101625.06;5120508;27;45614;-70
2023/04/27 06:38:40;;;;;;;;;30.00;25.33;;;;;10.81;49.83;101633.09;5120437;27;45362;-74
2023/04/27 06:41:06;;;;;;;;;33.67;29.67;;;;;10.61;49.74;101623.59;5120111;27;46233;-72
2023/04/27 06:43:31;;;;;;;;;33.33;32.33;;;;;10.44;49.94;101622.88;5119978;27;45370;-75
2023/04/27 06:45:56;;;;;;;;;37.33;30.67;;;;;10.31;50.26;101632.59;5120244;27;45557;-76
2023/04/27 06:48:22;;;;;;;;;36.00;28.33;;;;;10.22;50.94;101625.66;5120018;27;45418;-76
2023/04/27 06:50:47;;;;;;;;;37.33;29.33;;;;;10.18;50.76;101617.75;5120246;27;45352;-76
2023/04/27 06:53:13;;;;;;;;;36.00;30.67;;;;;10.17;51.02;101622.16;5119486;27;45366;-67
2023/04/27 06:55:38;;;;;;;;;34.00;31.00;;;;;10.36;51.02;101617.66;5119193;27;45685;-67
2023/04/27 06:58:04;;;;;;;;;33.33;29.33;;;;;10.50;51.01;101616.69;5119572;27;45246;-67
2023/04/27 07:00:30;;;;;;;;;31.00;29.00;;;;;10.74;50.38;101620.88;5119641;27;46507;-68
2023/04/27 07:02:55;;;;;;;;;36.00;31.33;;;;;10.82;49.73;101618.16;5119434;27;45413;-66
2023/04/27 07:05:21;;;;;;;;;36.33;33.00;;;;;10.57;50.29;101607.84;5119341;27;45311;-67
2023/04/27 07:07:46;;;;;;;;;45.33;32.33;;;;;10.42;50.35;101598.31;5119931;27;45328;-68
2023/04/27 07:10:11;;;;;;;;;38.00;30.67;;;;;10.44;50.81;101623.75;5119373;27;46657;-69
2023/04/27 07:12:37;;;;;;;;;40.67;32.00;;;;;10.35;50.74;101609.78;5119632;27;45661;-70
2023/04/27 07:15:05;;;;;;;;;40.67;34.33;;;;;10.42;50.70;101619.38;5119737;27;45425;-69
2023/04/27 07:17:30;;;;;;;;;40.00;32.67;;;;;10.30;50.93;101604.53;5119350;27;45382;-68
2023/04/27 07:19:56;;;;;;;;;42.00;32.67;;;;;10.57;51.11;101619.25;5119047;27;45509;-68
2023/04/27 07:22:21;;;;;;;;;38.33;31.33;;;;;10.67;50.66;101608.63;5119277;27;45406;-68
2023/04/27 07:24:46;;;;;;;;;34.00;31.00;;;;;10.83;50.27;101625.16;5119402;27;45428;-67
2023/04/27 07:27:13;;;;;;;;;36.33;31.67;;;;;10.90;50.21;101613.69;5119827;27;45418;-67
2023/04/27 07:29:39;;;;;;;;;47.00;31.67;;;;;11.01;50.28;101608.28;5119110;27;47170;-68
2023/04/27 07:32:06;;;;;;;;;30.67;26.67;;;;;11.37;49.38;101625.47;5118795;27;45391;-67
2023/04/27 07:34:31;;;;;;;;;35.67;31.67;;;;;11.65;48.73;101622.50;5119067;27;45476;-66
2023/04/27 07:36:56;;;;;;;;;31.67;29.00;;;;;12.06;48.51;101620.19;5119270;27;45541;-69
2023/04/27 07:39:22;;;;;;;;;35.67;29.33;;;;;12.63;46.79;101619.28;5119105;27;45395;-67
2023/04/27 07:41:48;;;;;;;;;32.67;30.00;;;;;12.80;47.14;101625.13;5118804;27;45182;-68
2023/04/27 07:44:24;;;;;;;;;41.33;30.67;;;;;13.64;46.00;101605.91;5067171;28;45370;-69
2023/04/27 07:46:52;;;;;;;;;33.00;30.33;;;;;15.65;42.34;101612.25;5050264;28;45310;-68
2023/04/27 07:49:18;;;;;;;;;34.00;28.33;;;;;16.76;39.32;101601.63;5050397;28;45313;-67
2023/04/27 07:51:44;;;;;;;;;31.00;25.00;;;;;17.97;39.92;101608.75;5050698;28;45687;-68
2023/04/27 07:54:09;;;;;;;;;31.67;25.33;;;;;18.79;35.85;101607.09;5050225;28;46580;-67
2023/04/27 07:56:35;;;;;;;;;35.33;27.00;;;;;18.96;36.03;101606.34;5050072;28;45406;-70
2023/04/27 07:59:00;;;;;;;;;26.00;26.00;;;;;19.33;35.51;101605.63;5050196;28;45734;-67
2023/04/27 08:01:25;;;;;;;;;32.67;25.33;;;;;19.04;35.36;101607.81;5050422;28;45360;-67
2023/04/27 08:03:51;;;;;;;;;25.00;23.00;;;;;18.73;37.75;101615.31;5050061;28;46626;-68
2023/04/27 08:06:17;;;;;;;;;26.00;22.67;;;;;18.41;37.04;101608.69;5050235;28;45248;-68
2023/04/27 08:08:42;;;;;;;;;28.00;28.00;;;;;17.94;35.99;101617.72;5050212;28;45310;-68
2023/04/27 08:11:09;;;;;;;;;27.00;25.67;;;;;17.45;36.43;101624.91;5049779;28;45322;-67
2023/04/27 08:13:35;;;;;;;;;34.67;30.67;;;;;16.77;36.34;101606.88;5049892;28;46103;-68
2023/04/27 08:16:00;;;;;;;;;28.33;24.33;;;;;16.23;38.82;101598.06;5049650;27;45568;-69
2023/04/27 08:18:26;;;;;;;;;35.00;29.33;;;;;16.05;38.46;101623.47;5049873;28;45438;-68
2023/04/27 08:20:52;;;;;;;;;34.00;28.00;;;;;15.90;39.90;101631.91;5049985;27;45344;-68
2023/04/27 08:23:17;;;;;;;;;32.67;30.67;;;;;15.64;39.70;101604.31;5049052;28;46304;-67
2023/04/27 08:25:42;;;;;;;;;34.00;29.00;;;;;15.60;39.71;101618.63;5049759;28;46038;-68
2023/04/27 08:28:08;;;;;;;;;30.67;26.67;;;;;15.49;40.08;101621.56;5049816;28;45220;-68
2023/04/27 08:30:33;;;;;;;;;33.67;30.00;;;;;15.12;39.78;101581.03;5049988;28;45941;-68
2023/04/27 08:32:59;;;;;;;;;30.67;27.67;;;;;15.25;39.47;101613.41;5049176;28;45532;-67
2023/04/27 08:35:24;;;;;;;;;29.33;24.00;;;;;15.24;39.70;101614.31;5050300;27;45492;-69
2023/04/27 08:37:49;;;;;;;;;33.33;27.00;;;;;15.24;39.12;101608.16;5049425;28;45349;-68
2023/04/27 08:40:15;;;;;;;;;35.33;30.33;;;;;15.20;39.87;101603.84;5049619;28;45351;-69
2023/04/27 08:42:53;;;;;;;;;31.67;28.67;;;;;15.38;40.22;101613.03;5027800;27;45793;-69
2023/04/27 08:45:20;;;;;;;;;39.00;28.00;;;;;15.43;40.19;101612.00;5029353;28;45371;-67
2023/04/27 08:47:46;;;;;;;;;28.00;24.67;;;;;15.38;39.97;101608.63;5029430;28;45365;-68
2023/04/27 08:50:11;;;;;;;;;35.00;30.33;;;;;15.32;40.35;101580.47;5029090;28;45316;-68
2023/04/27 08:52:37;;;;;;;;;34.00;28.67;;;;;15.65;39.84;101614.91;5028911;28;45346;-67
2023/04/27 08:55:03;;;;;;;;;38.33;30.33;;;;;15.61;38.92;101621.22;5019289;28;45386;-69
2023/04/27 08:57:29;;;;;;;;;40.67;32.00;;;;;15.56;38.75;101609.00;5016292;28;45297;-68
2023/04/27 08:59:59;;;;;;;;;37.00;30.33;;;;;15.64;39.65;101610.50;5016206;28;45553;-68
2023/04/27 09:02:28;;;;;;;;;31.33;29.33;;;;;15.58;39.41;101577.94;5015978;28;45639;-69
2023/04/27 09:04:53;;;;;;;;;36.00;33.67;;;;;15.92;39.20;101615.00;5015495;28;45427;-69
2023/04/27 09:07:19;;;;;;;;;40.00;32.67;;;;;15.75;38.80;101596.88;5015950;28;45506;-69
2023/04/27 09:09:44;;;;;;;;;32.67;30.00;;;;;15.81;39.33;101625.06;5016438;28;45660;-68
2023/04/27 09:12:17;;;;;;;;;37.67;32.67;;;;;15.78;38.48;101619.84;5015066;28;46360;-69
2023/04/27 09:14:42;;;;;;;;;37.67;31.33;;;;;15.77;38.41;101611.00;5015983;28;45300;-69
2023/04/27 09:17:08;;;;;;;;;33.00;30.33;;;;;15.78;38.96;101595.94;5015831;28;45245;-69
2023/04/27 09:19:34;;;;;;;;;40.33;34.67;;;;;16.15;38.76;101613.41;5016029;28;45311;-69
2023/04/27 09:22:10;;;;;;;;;36.33;31.67;;;;;16.32;38.35;101602.22;5015841;28;45444;-69
2023/04/27 09:24:36;;;;;;;;;48.33;35.67;;;;;16.44;37.37;101588.53;5015538;28;45349;-68
2023/04/27 09:27:03;;;;;;;;;42.00;35.33;;;;;16.50;37.75;101590.97;5015528;28;45448;-69
2023/04/27 09:29:37;;;;;;;;;40.00;35.00;;;;;16.71;37.08;101599.13;5015949;28;45321;-69
2023/04/27 09:32:19;;;;;;;;;34.33;32.33;;;;;16.95;37.78;101589.44;5015384;28;45502;-69
2023/04/27 09:34:45;;;;;;;;;39.00;36.33;;;;;17.24;36.89;101590.19;5015170;28;45375;-68
2023/04/27 09:37:11;;;;;;;;;43.33;38.33;;;;;17.37;36.66;101599.44;5015560;28;45356;-69
2023/04/27 09:39:37;;;;;;;;;44.33;38.33;;;;;17.44;36.13;101594.75;5015804;28;45464;-68
2023/04/27 09:42:03;;;;;;;;;32.33;31.67;;;;;17.92;36.34;101595.56;5015987;28;45660;-69
2023/04/27 09:44:30;;;;;;;;;37.00;32.33;;;;;18.28;35.65;101560.34;5035410;28;45416;-69
2023/04/27 09:46:57;;;;;;;;;36.33;33.33;;;;;19.05;34.85;101585.53;5035550;28;45503;-69
2023/04/27 09:49:24;;;;;;;;;38.67;31.67;;;;;19.66;34.95;101596.06;5035884;28;45340;-70
2023/04/27 09:51:51;;;;;;;;;38.33;34.67;;;;;20.28;34.08;101585.06;5035490;28;45630;-70
2023/04/27 09:54:18;;;;;;;;;39.33;33.67;;;;;20.74;32.33;101581.91;5035516;27;45434;-70
2023/04/27 09:57:22;;;;;;;;;36.33;32.67;;;;;21.20;31.01;101576.75;5035827;28;45821;-70
2023/04/27 10:00:06;;;;;;;;;39.00;34.00;;;;;22.00;32.15;101566.09;4954701;28;45413;-70
2023/04/27 10:02:55;;;;;;;;;36.67;31.67;;;;;22.55;30.88;101558.44;4954304;28;45954;-70
2023/04/27 10:05:45;;;;;;;;;33.00;28.33;;;;;23.01;29.26;101557.44;4953830;28;45545;-70
2023/04/27 10:08:11;;;;;;;;;42.00;33.67;;;;;23.35;30.19;101550.81;4954412;28;45909;-70
2023/04/27 10:10:49;;;;;;;;;41.67;34.33;;;;;23.78;28.58;101552.56;4954938;28;45395;-70
2023/04/27 10:13:22;;;;;;;;;43.00;34.00;;;;;24.40;29.36;101556.53;4953310;28;45371;-70
2023/04/27 10:15:48;;;;;;;;;34.00;32.33;;;;;24.73;27.51;101545.28;4954210;28;45455;-70
2023/04/27 10:18:32;;;;;;;;;36.33;31.67;;;;;25.39;26.99;101538.91;4953761;28;45523;-70
2023/04/27 10:21:10;;;;;;;;;31.67;30.33;;;;;25.98;27.26;101495.81;4954032;28;45423;-71
2023/04/27 10:23:45;;;;;;;;;39.67;36.00;;;;;26.95;25.89;101532.50;4952197;28;45496;-70
2023/04/27 10:26:11;;;;;;;;;39.33;32.67;;;;;27.47;24.86;101522.03;4953689;28;45906;-70
2023/04/27 10:28:40;;;;;;;;;36.33;31.67;;;;;28.29;24.13;101537.72;4953865;28;45419;-71
2023/04/27 10:31:12;;;;;;;;;28.67;28.33;;;;;28.75;21.32;101519.38;4954275;28;45583;-71
2023/04/27 10:33:42;;;;;;;;;33.00;28.33;;;;;29.10;23.05;101524.34;4988859;28;45449;-71
2023/04/27 10:36:13;;;;;;;;;39.33;32.67;;;;;29.32;22.25;101509.78;5016935;28;45746;-71
2023/04/27 10:38:39;;;;;;;;;31.00;28.67;;;;;29.51;23.01;101521.66;5035401;27;45482;-71
2023/04/27 10:41:13;;;;;;;;;35.33;29.33;;;;;29.51;21.36;101527.06;5034009;28;45573;-70
2023/04/27 10:43:39;;;;;;;;;39.00;31.00;;;;;29.39;20.86;101522.78;5034680;28;46477;-70
2023/04/27 10:46:14;;;;;;;;;32.00;30.00;;;;;29.06;21.83;101528.38;5034816;28;45236;-71
2023/04/27 10:48:43;;;;;;;;;28.33;27.00;;;;;28.69;21.01;101525.34;5034802;28;45448;-71
2023/04/27 10:51:13;;;;;;;;;34.00;30.00;;;;;28.02;21.13;101532.84;5034748;28;45511;-70
2023/04/27 10:53:39;;;;;;;;;32.00;29.33;;;;;27.08;21.51;101519.72;5034401;28;45627;-70
2023/04/27 10:56:05;;;;;;;;;31.00;29.00;;;;;26.16;22.45;101506.19;5034543;28;45330;-70
2023/04/27 10:58:32;;;;;;;;;38.67;32.67;;;;;25.45;23.81;101528.50;5035053;28;45365;-70
2023/04/27 11:00:58;;;;;;;;;27.33;25.67;;;;;24.47;23.99;101521.03;5035021;28;45337;-70
2023/04/27 11:03:24;;;;;;;;;29.67;29.00;;;;;23.65;24.79;101528.28;5033417;28;45505;-71
2023/04/27 11:05:59;;;;;;;;;31.33;27.33;;;;;22.99;25.23;101519.06;5034663;28;45458;-70
2023/04/27 11:08:24;;;;;;;;;42.00;32.33;;;;;22.31;25.82;101507.09;5035313;27;45307;-71
2023/04/27 11:10:50;;;;;;;;;36.00;28.67;;;;;21.70;26.80;101499.88;5034329;28;45733;-70